Brent, Florida
Current Conditions -  °F | °C
As of 4:53 AM on Friday 31 Oct 2014 (Local Time) from KPNS Reporting Station
Clear Clear  
Wind Chill: 46°   Ceiling: Unl
Heat Index: 48°   Visibility: 10mi
Dew Point: 41°   Wind: 5mph
Humidity: 77%   Direction: 320°NW
Pressure: 29.99"   Gusts: NA
Location:  30.46°N, 87.24°W
Report Text: KPNS 310953Z AUTO 32004KT 10SM CLR 09/05 A2999 RMK AO2 SLP157 T00890050
Loading
Personal Weather Stations






























Interactive Weather Map
Tropical Storm Tracking
New forecast layout! Learn more

10-Day Weather Forecast

Advertisements
Track Severe Weather on mobile